الصفحة الرئيسية
METAR-TAF:

METAR-TAF

مطار :

Puerto Cabezas, نيكاراغوا

دائرة عرض: 14-03N, خط طول: 083-22W, ارتفاع: 20 متر

مراقبة الطقس الحالي

تاريخ ووقت الإصدار 10ساعات و 25 دقيقة قبل الساعة 23:00UTC
ريح 6 عقدة من الشرق
درجة الحرارة 29°درجة مئوية
الرطوبة 74%
ضغط 1009 hPa
الرؤية: 7000 متر
غيوم مفككة على ارتفاع 1600 قدم
العجاج

METAR: MNPC 182300Z 09006KT 7000 BKN016 29/24 Q1009 HZ

زمن: 03:25 (09:25 UTC)

توقعات

تاريخ ووقت الإصدار 11ساعات و 45 دقيقة قبل الساعة 21:40UTC
التوقعات صالحة من19 الساعة 00 UTC إلى 19 الساعة 24 UTC
ريح 8 عقدة من الشرق
الرؤية: 7000 متر
غيوم متفرقة على ارتفاع 1600 قدم
العجاج
مؤقت
من 19 الساعة 04 UTC إلى 19 الساعة 10 UTC
ريح 10 عقدة من الشرق
الرؤية: 6000 متر
غيوم مفككة على ارتفاع 1700 قدم
بالجوار, مطر
أصبح
من 19 الساعة 12 UTC إلى 19 الساعة 14 UTC
ريح 8 عقدة من الشرق
الرؤية: 7000 متر
العجاج

TAF: MNPC 182140Z 1900/1924 09008KT 7000 HZ SCT016 TEMPO 1904/1910 10010KT 6000 VCRA BKN017 BECMG 1912/1914 09008KT 7000 HZ

أرصاد الطقس والتوقعات من أكثر من 4000 مطار (تقارير الطقس للمطار METAR والتنبؤ بالطقس بالمطارTAF).

المحطات المتاحة هي النقط الصفراء والحمراء على الخريطة.

حرك المؤشر فوق النقطة لمعرفة اسم المحطة.

ثم انقر لمعرفة أرصاد وتوقعات الطقس.

لتغيير الخارطة: اضغط على الأزرار الخضراء مع رمز الصليب الأسود للتكبير. على الزر الأخضر مع شرطة للتصغير، أو على الأسهم الخضراء للخرائط المجاورة.


METAR-TAF: